sensor_id;sensor_type;location;lat;lon;timestamp;pressure;altitude;pressure_sealevel;temperature;humidity
66398;BME280;54877;51.504;3.894;2023-02-23T00:00:15;101354.34;;;11.91;68.01
66398;BME280;54877;51.504;3.894;2023-02-23T00:02:52;101357.09;;;11.90;68.02
66398;BME280;54877;51.504;3.894;2023-02-23T00:05:20;101359.88;;;11.87;68.02
66398;BME280;54877;51.504;3.894;2023-02-23T00:07:50;101355.44;;;11.87;68.13
66398;BME280;54877;51.504;3.894;2023-02-23T00:10:16;101365.19;;;11.87;68.30
66398;BME280;54877;51.504;3.894;2023-02-23T00:12:43;101362.66;;;11.84;68.34
66398;BME280;54877;51.504;3.894;2023-02-23T00:15:09;101370.63;;;11.84;68.34
66398;BME280;54877;51.504;3.894;2023-02-23T00:17:35;101365.31;;;11.84;68.25
66398;BME280;54877;51.504;3.894;2023-02-23T00:20:04;101365.47;;;11.81;68.42
66398;BME280;54877;51.504;3.894;2023-02-23T00:22:38;101370.13;;;11.75;68.42
66398;BME280;54877;51.504;3.894;2023-02-23T00:25:04;101363.88;;;11.76;68.64
66398;BME280;54877;51.504;3.894;2023-02-23T00:27:33;101364.03;;;11.73;68.62
66398;BME280;54877;51.504;3.894;2023-02-23T00:30:00;101363.16;;;11.73;68.70
66398;BME280;54877;51.504;3.894;2023-02-23T00:32:25;101362.31;;;11.72;68.58
66398;BME280;54877;51.504;3.894;2023-02-23T00:34:51;101354.34;;;11.72;68.55
66398;BME280;54877;51.504;3.894;2023-02-23T00:37:17;101355.25;;;11.71;68.67
66398;BME280;54877;51.504;3.894;2023-02-23T00:39:43;101352.84;;;11.65;68.65
66398;BME280;54877;51.504;3.894;2023-02-23T00:42:09;101346.63;;;11.66;68.83
66398;BME280;54877;51.504;3.894;2023-02-23T00:44:35;101351.06;;;11.66;68.72
66398;BME280;54877;51.504;3.894;2023-02-23T00:47:04;101356.31;;;11.67;68.60
66398;BME280;54877;51.504;3.894;2023-02-23T00:49:31;101355.50;;;11.65;68.72
66398;BME280;54877;51.504;3.894;2023-02-23T00:51:57;101352.94;;;11.64;68.47
66398;BME280;54877;51.504;3.894;2023-02-23T00:54:23;101352.94;;;11.64;68.71
66398;BME280;54877;51.504;3.894;2023-02-23T00:56:49;101357.38;;;11.63;68.55
66398;BME280;54877;51.504;3.894;2023-02-23T00:59:15;101359.13;;;11.64;68.57
66398;BME280;54877;51.504;3.894;2023-02-23T01:01:41;101362.69;;;11.63;68.63
66398;BME280;54877;51.504;3.894;2023-02-23T01:04:07;101355.72;;;11.61;68.65
66398;BME280;54877;51.504;3.894;2023-02-23T01:06:35;101358.34;;;11.62;68.45
66398;BME280;54877;51.504;3.894;2023-02-23T01:09:08;101358.34;;;11.62;68.33
66398;BME280;54877;51.504;3.894;2023-02-23T01:11:37;101352.94;;;11.64;68.26
66398;BME280;54877;51.504;3.894;2023-02-23T01:14:02;101361.69;;;11.66;68.44
66398;BME280;54877;51.504;3.894;2023-02-23T01:16:29;101365.19;;;11.66;68.54
66398;BME280;54877;51.504;3.894;2023-02-23T01:18:57;101364.28;;;11.67;68.39
66398;BME280;54877;51.504;3.894;2023-02-23T01:21:25;101377.50;;;11.69;68.28
66398;BME280;54877;51.504;3.894;2023-02-23T01:23:55;101376.59;;;11.68;68.33
66398;BME280;54877;51.504;3.894;2023-02-23T01:26:22;101380.19;;;11.67;68.51
66398;BME280;54877;51.504;3.894;2023-02-23T01:28:54;101374.88;;;11.67;68.61
66398;BME280;54877;51.504;3.894;2023-02-23T01:31:21;101384.53;;;11.68;68.25
66398;BME280;54877;51.504;3.894;2023-02-23T01:33:51;101380.19;;;11.67;68.39
66398;BME280;54877;51.504;3.894;2023-02-23T01:36:26;101390.16;;;11.62;68.60
66398;BME280;54877;51.504;3.894;2023-02-23T01:38:55;101380.34;;;11.64;68.42
66398;BME280;54877;51.504;3.894;2023-02-23T01:41:24;101384.75;;;11.64;68.67
66398;BME280;54877;51.504;3.894;2023-02-23T01:44:00;101380.34;;;11.64;68.61
66398;BME280;54877;51.504;3.894;2023-02-23T01:46:38;101384.75;;;11.64;68.50
66398;BME280;54877;51.504;3.894;2023-02-23T01:49:07;101385.63;;;11.64;68.43
66398;BME280;54877;51.504;3.894;2023-02-23T01:51:40;101388.41;;;11.61;68.28
66398;BME280;54877;51.504;3.894;2023-02-23T01:54:11;101379.59;;;11.61;68.70
66398;BME280;54877;51.504;3.894;2023-02-23T01:56:40;101379.59;;;11.61;68.49
66398;BME280;54877;51.504;3.894;2023-02-23T01:59:13;101385.78;;;11.61;68.59
66398;BME280;54877;51.504;3.894;2023-02-23T02:01:40;101383.03;;;11.63;68.57
66398;BME280;54877;51.504;3.894;2023-02-23T02:04:07;101383.97;;;11.62;68.43
66398;BME280;54877;51.504;3.894;2023-02-23T02:06:40;101383.03;;;11.63;68.47
66398;BME280;54877;51.504;3.894;2023-02-23T02:09:07;101381.25;;;11.63;68.46
66398;BME280;54877;51.504;3.894;2023-02-23T02:11:35;101380.38;;;11.63;68.45
66398;BME280;54877;51.504;3.894;2023-02-23T02:14:04;101384.69;;;11.65;68.58
66398;BME280;54877;51.504;3.894;2023-02-23T02:25:35;101385.78;;;11.61;68.43
66398;BME280;54877;51.504;3.894;2023-02-23T02:28:29;101384.03;;;11.60;68.52
66398;BME280;54877;51.504;3.894;2023-02-23T02:34:01;101373.56;;;11.57;68.44
66398;BME280;54877;51.504;3.894;2023-02-23T02:46:47;101371.88;;;11.56;68.68
66398;BME280;54877;51.504;3.894;2023-02-23T02:49:24;101369.13;;;11.58;68.56
66398;BME280;54877;51.504;3.894;2023-02-23T02:52:06;101366.56;;;11.56;68.47
66398;BME280;54877;51.504;3.894;2023-02-23T02:54:48;101360.53;;;11.53;68.50
66398;BME280;54877;51.504;3.894;2023-02-23T02:57:18;101364.09;;;11.52;68.55
66398;BME280;54877;51.504;3.894;2023-02-23T02:59:48;101367.63;;;11.52;68.39
66398;BME280;54877;51.504;3.894;2023-02-23T03:02:34;101362.25;;;11.54;68.59
66398;BME280;54877;51.504;3.894;2023-02-23T03:05:28;101359.53;;;11.55;68.39
66398;BME280;54877;51.504;3.894;2023-02-23T03:08:22;101356.81;;;11.57;68.41
66398;BME280;54877;51.504;3.894;2023-02-23T03:11:15;101362.03;;;11.58;68.09
66398;BME280;54877;51.504;3.894;2023-02-23T03:20:27;101348.31;;;11.49;68.41
66398;BME280;54877;51.504;3.894;2023-02-23T03:23:24;101360.09;;;11.43;68.77
66398;BME280;54877;51.504;3.894;2023-02-23T03:29:30;101370.69;;;11.43;68.77
66398;BME280;54877;51.504;3.894;2023-02-23T03:32:32;101366.09;;;11.47;68.71
66398;BME280;54877;51.504;3.894;2023-02-23T03:35:23;101375.91;;;11.45;68.49
66398;BME280;54877;51.504;3.894;2023-02-23T03:41:24;101370.34;;;11.51;68.83
66398;BME280;54877;51.504;3.894;2023-02-23T03:44:16;101373.78;;;11.53;68.48
66398;BME280;54877;51.504;3.894;2023-02-23T03:47:05;101372.91;;;11.52;68.79
66398;BME280;54877;51.504;3.894;2023-02-23T03:49:51;101380.81;;;11.54;68.58
66398;BME280;54877;51.504;3.894;2023-02-23T03:52:40;101382.53;;;11.55;68.68
66398;BME280;54877;51.504;3.894;2023-02-23T03:55:33;101386.91;;;11.56;68.65
66398;BME280;54877;51.504;3.894;2023-02-23T03:58:22;101391.34;;;11.55;68.65
66398;BME280;54877;51.504;3.894;2023-02-23T04:01:13;101393.06;;;11.56;68.54
66398;BME280;54877;51.504;3.894;2023-02-23T04:04:00;101387.78;;;11.56;68.66
66398;BME280;54877;51.504;3.894;2023-02-23T04:06:47;101392.13;;;11.57;68.75
66398;BME280;54877;51.504;3.894;2023-02-23T04:09:32;101388.47;;;11.60;68.62
66398;BME280;54877;51.504;3.894;2023-02-23T04:15:16;101391.94;;;11.62;68.35
66398;BME280;54877;51.504;3.894;2023-02-23T04:17:51;101390.06;;;11.64;68.29
66398;BME280;54877;51.504;3.894;2023-02-23T04:20:17;101395.25;;;11.67;68.38
66398;BME280;54877;51.504;3.894;2023-02-23T04:22:44;101395.25;;;11.67;68.11
66398;BME280;54877;51.504;3.894;2023-02-23T04:25:09;101402.22;;;11.69;68.15
66398;BME280;54877;51.504;3.894;2023-02-23T04:27:37;101404.06;;;11.67;68.20
66398;BME280;54877;51.504;3.894;2023-02-23T04:30:03;101408.41;;;11.68;68.18
66398;BME280;54877;51.504;3.894;2023-02-23T04:32:29;101412.03;;;11.67;68.36
66398;BME280;54877;51.504;3.894;2023-02-23T04:34:54;101412.03;;;11.67;68.26
66398;BME280;54877;51.504;3.894;2023-02-23T04:37:20;101418.19;;;11.68;68.10
66398;BME280;54877;51.504;3.894;2023-02-23T04:39:45;101408.50;;;11.67;68.21
66398;BME280;54877;51.504;3.894;2023-02-23T04:42:14;101414.69;;;11.67;68.33
66398;BME280;54877;51.504;3.894;2023-02-23T04:44:40;101410.25;;;11.68;68.31
66398;BME280;54877;51.504;3.894;2023-02-23T04:47:05;101406.84;;;11.64;68.23
66398;BME280;54877;51.504;3.894;2023-02-23T04:49:31;101412.16;;;11.64;68.34
66398;BME280;54877;51.504;3.894;2023-02-23T04:51:56;101407.78;;;11.63;68.33
66398;BME280;54877;51.504;3.894;2023-02-23T04:54:22;101416.69;;;11.62;68.45
66398;BME280;54877;51.504;3.894;2023-02-23T04:56:47;101421.16;;;11.60;68.52
66398;BME280;54877;51.504;3.894;2023-02-23T04:59:13;101420.25;;;11.61;68.41
66398;BME280;54877;51.504;3.894;2023-02-23T05:01:38;101414.03;;;11.62;68.48
66398;BME280;54877;51.504;3.894;2023-02-23T05:04:03;101422.91;;;11.61;68.58
66398;BME280;54877;51.504;3.894;2023-02-23T05:06:29;101424.63;;;11.62;68.66
66398;BME280;54877;51.504;3.894;2023-02-23T05:08:54;101424.56;;;11.64;68.23
66398;BME280;54877;51.504;3.894;2023-02-23T05:11:20;101423.75;;;11.62;68.33
66398;BME280;54877;51.504;3.894;2023-02-23T05:13:45;101429.06;;;11.62;68.26
66398;BME280;54877;51.504;3.894;2023-02-23T05:16:10;101425.59;;;11.60;68.28
66398;BME280;54877;51.504;3.894;2023-02-23T05:18:36;101431.78;;;11.60;68.48
66398;BME280;54877;51.504;3.894;2023-02-23T05:21:02;101434.50;;;11.59;68.53
66398;BME280;54877;51.504;3.894;2023-02-23T05:23:30;101434.50;;;11.59;68.30
66398;BME280;54877;51.504;3.894;2023-02-23T05:25:59;101431.91;;;11.57;68.57
66398;BME280;54877;51.504;3.894;2023-02-23T05:28:27;101434.03;;;11.49;68.71
66398;BME280;54877;51.504;3.894;2023-02-23T05:30:53;101435.50;;;11.56;68.58
66398;BME280;54877;51.504;3.894;2023-02-23T05:33:18;101444.25;;;11.58;68.52
66398;BME280;54877;51.504;3.894;2023-02-23T05:35:45;101435.50;;;11.56;68.74
66398;BME280;54877;51.504;3.894;2023-02-23T05:38:11;101438.34;;;11.52;68.78
66398;BME280;54877;51.504;3.894;2023-02-23T05:40:37;101430.34;;;11.53;68.62
66398;BME280;54877;51.504;3.894;2023-02-23T05:43:03;101440.94;;;11.53;68.75
66398;BME280;54877;51.504;3.894;2023-02-23T05:45:29;101438.16;;;11.56;68.58
66398;BME280;54877;51.504;3.894;2023-02-23T05:47:54;101431.06;;;11.57;68.80
66398;BME280;54877;51.504;3.894;2023-02-23T05:50:19;101438.94;;;11.58;68.65
66398;BME280;54877;51.504;3.894;2023-02-23T05:52:45;101442.50;;;11.57;68.53
66398;BME280;54877;51.504;3.894;2023-02-23T05:55:10;101442.50;;;11.57;68.54
66398;BME280;54877;51.504;3.894;2023-02-23T05:57:36;101442.66;;;11.54;68.37
66398;BME280;54877;51.504;3.894;2023-02-23T06:00:02;101448.75;;;11.56;68.72
66398;BME280;54877;51.504;3.894;2023-02-23T06:02:30;101450.59;;;11.54;68.65
66398;BME280;54877;51.504;3.894;2023-02-23T06:05:00;101445.47;;;11.51;68.94
66398;BME280;54877;51.504;3.894;2023-02-23T06:07:25;101447.25;;;11.51;68.71
66398;BME280;54877;51.504;3.894;2023-02-23T06:09:51;101453.41;;;11.51;68.94
66398;BME280;54877;51.504;3.894;2023-02-23T06:12:16;101450.75;;;11.51;68.80
66398;BME280;54877;51.504;3.894;2023-02-23T06:14:41;101453.41;;;11.51;68.65
66398;BME280;54877;51.504;3.894;2023-02-23T06:17:06;101462.16;;;11.53;68.77
66398;BME280;54877;51.504;3.894;2023-02-23T06:19:32;101470.16;;;11.52;68.81
66398;BME280;54877;51.504;3.894;2023-02-23T06:21:58;101469.31;;;11.51;68.78
66398;BME280;54877;51.504;3.894;2023-02-23T06:24:23;101477.28;;;11.51;68.95
66398;BME280;54877;51.504;3.894;2023-02-23T06:26:49;101483.50;;;11.50;68.91
66398;BME280;54877;51.504;3.894;2023-02-23T06:29:15;101477.41;;;11.48;68.77
66398;BME280;54877;51.504;3.894;2023-02-23T06:31:41;101484.53;;;11.46;68.91
66398;BME280;54877;51.504;3.894;2023-02-23T06:34:06;101489.84;;;11.46;69.09
66398;BME280;54877;51.504;3.894;2023-02-23T06:36:32;101489.06;;;11.44;69.02
66398;BME280;54877;51.504;3.894;2023-02-23T06:38:57;101494.38;;;11.44;69.05
66398;BME280;54877;51.504;3.894;2023-02-23T06:41:23;101499.66;;;11.44;69.27
66398;BME280;54877;51.504;3.894;2023-02-23T06:43:49;101504.38;;;11.38;69.02
66398;BME280;54877;51.504;3.894;2023-02-23T06:46:15;101504.44;;;11.36;69.48
66398;BME280;54877;51.504;3.894;2023-02-23T06:48:41;101509.75;;;11.36;69.32
66398;BME280;54877;51.504;3.894;2023-02-23T06:51:06;101513.31;;;11.35;69.32
66398;BME280;54877;51.504;3.894;2023-02-23T06:53:32;101519.69;;;11.31;69.46
66398;BME280;54877;51.504;3.894;2023-02-23T06:55:58;101515.28;;;11.30;69.71
66398;BME280;54877;51.504;3.894;2023-02-23T06:58:23;101521.72;;;11.25;69.75
66398;BME280;54877;51.504;3.894;2023-02-23T07:00:49;101520.06;;;11.22;70.02
66398;BME280;54877;51.504;3.894;2023-02-23T07:03:15;101529.88;;;11.20;70.14
66398;BME280;54877;51.504;3.894;2023-02-23T07:05:40;101535.41;;;11.14;70.35
66398;BME280;54877;51.504;3.894;2023-02-23T07:08:06;101533.50;;;11.17;70.30
66398;BME280;54877;51.504;3.894;2023-02-23T07:10:31;101538.69;;;11.20;70.16
66398;BME280;54877;51.504;3.894;2023-02-23T07:12:57;101542.31;;;11.18;70.41
66398;BME280;54877;51.504;3.894;2023-02-23T07:15:23;101548.28;;;11.23;70.21
66398;BME280;54877;51.504;3.894;2023-02-23T07:17:48;101546.44;;;11.25;70.11
66398;BME280;54877;51.504;3.894;2023-02-23T07:20:16;101549.97;;;11.26;70.33
66398;BME280;54877;51.504;3.894;2023-02-23T07:22:43;101546.31;;;11.28;70.39
66398;BME280;54877;51.504;3.894;2023-02-23T07:25:08;101549.03;;;11.27;70.64
66398;BME280;54877;51.504;3.894;2023-02-23T07:27:34;101553.53;;;11.25;70.68
66398;BME280;54877;51.504;3.894;2023-02-23T07:30:00;101555.13;;;11.29;70.53
66398;BME280;54877;51.504;3.894;2023-02-23T07:32:27;101566.47;;;11.32;70.58
66398;BME280;54877;51.504;3.894;2023-02-23T07:34:52;101570.66;;;11.38;70.45
66398;BME280;54877;51.504;3.894;2023-02-23T07:37:18;101574.56;;;11.29;70.61
66398;BME280;54877;51.504;3.894;2023-02-23T07:39:43;101582.19;;;11.37;70.81
66398;BME280;54877;51.504;3.894;2023-02-23T07:42:08;101588.22;;;11.40;70.52
66398;BME280;54877;51.504;3.894;2023-02-23T07:44:34;101581.31;;;11.36;70.75
66398;BME280;54877;51.504;3.894;2023-02-23T07:46:59;101595.19;;;11.43;70.73
66398;BME280;54877;51.504;3.894;2023-02-23T07:49:25;101602.03;;;11.48;70.32
66398;BME280;54877;51.504;3.894;2023-02-23T07:51:50;101598.44;;;11.49;70.55
66398;BME280;54877;51.504;3.894;2023-02-23T07:54:15;101604.56;;;11.51;70.57
66398;BME280;54877;51.504;3.894;2023-02-23T07:56:41;101608.69;;;11.58;70.44
66398;BME280;54877;51.504;3.894;2023-02-23T07:59:07;101601.63;;;11.57;70.52
66398;BME280;54877;51.504;3.894;2023-02-23T08:01:32;101612.13;;;11.60;70.37
66398;BME280;54877;51.504;3.894;2023-02-23T08:03:58;101616.50;;;11.61;70.20
66398;BME280;54877;51.504;3.894;2023-02-23T08:06:23;101621.72;;;11.63;70.41
66398;BME280;54877;51.504;3.894;2023-02-23T08:08:48;101617.19;;;11.66;70.24
66398;BME280;54877;51.504;3.894;2023-02-23T08:11:14;101620.75;;;11.65;70.28
66398;BME280;54877;51.504;3.894;2023-02-23T08:13:39;101612.19;;;11.59;70.72
66398;BME280;54877;51.504;3.894;2023-02-23T08:16:05;101616.50;;;11.61;70.55
66398;BME280;54877;51.504;3.894;2023-02-23T08:18:31;101629.91;;;11.58;70.37
66398;BME280;54877;51.504;3.894;2023-02-23T08:21:00;101621.06;;;11.58;70.59
66398;BME280;54877;51.504;3.894;2023-02-23T08:23:30;101629.91;;;11.58;70.63
66398;BME280;54877;51.504;3.894;2023-02-23T08:25:56;101636.31;;;11.53;70.58
66398;BME280;54877;51.504;3.894;2023-02-23T08:28:23;101632.63;;;11.57;70.45
66398;BME280;54877;51.504;3.894;2023-02-23T08:30:49;101635.06;;;11.61;70.57
66398;BME280;54877;51.504;3.894;2023-02-23T08:33:14;101635.19;;;11.58;70.47
66398;BME280;54877;51.504;3.894;2023-02-23T08:35:40;101643.81;;;11.63;70.32
66398;BME280;54877;51.504;3.894;2023-02-23T08:38:05;101637.44;;;11.69;70.29
66398;BME280;54877;51.504;3.894;2023-02-23T08:40:31;101640.03;;;11.70;70.13
66398;BME280;54877;51.504;3.894;2023-02-23T08:42:56;101643.34;;;11.75;69.74
66398;BME280;54877;51.504;3.894;2023-02-23T08:45:22;101641.50;;;11.77;69.43
66398;BME280;54877;51.504;3.894;2023-02-23T08:47:47;101642.41;;;11.76;69.28
66398;BME280;54877;51.504;3.894;2023-02-23T08:50:12;101635.41;;;11.75;68.78
66398;BME280;54877;51.504;3.894;2023-02-23T08:52:40;101648.00;;;11.70;69.37
66398;BME280;54877;51.504;3.894;2023-02-23T08:55:06;101645.22;;;11.73;69.36
66398;BME280;54877;51.504;3.894;2023-02-23T08:57:33;101648.13;;;11.88;69.20
66398;BME280;54877;51.504;3.894;2023-02-23T08:59:59;101655.31;;;11.86;68.84
66398;BME280;54877;51.504;3.894;2023-02-23T09:02:24;101660.72;;;11.83;68.86
66398;BME280;54877;51.504;3.894;2023-02-23T09:04:49;101664.22;;;11.85;68.69
66398;BME280;54877;51.504;3.894;2023-02-23T09:07:17;101665.63;;;11.71;68.93
66398;BME280;54877;51.504;3.894;2023-02-23T09:09:51;101674.94;;;11.82;69.01
66398;BME280;54877;51.504;3.894;2023-02-23T09:12:17;101676.28;;;11.92;68.59
66398;BME280;54877;51.504;3.894;2023-02-23T09:14:43;101674.53;;;11.91;68.73
66398;BME280;54877;51.504;3.894;2023-02-23T09:17:08;101683.03;;;11.99;68.45
66398;BME280;54877;51.504;3.894;2023-02-23T09:19:33;101686.38;;;12.04;68.67
66398;BME280;54877;51.504;3.894;2023-02-23T09:21:59;101682.50;;;11.91;68.54
66398;BME280;54877;51.504;3.894;2023-02-23T09:24:24;101672.16;;;12.05;68.05
66398;BME280;54877;51.504;3.894;2023-02-23T09:26:49;101674.03;;;12.03;68.02
66398;BME280;54877;51.504;3.894;2023-02-23T09:29:17;101678.47;;;12.02;67.80
66398;BME280;54877;51.504;3.894;2023-02-23T09:31:42;101671.53;;;12.20;67.95
66398;BME280;54877;51.504;3.894;2023-02-23T09:34:08;101672.97;;;12.27;67.28
66398;BME280;54877;51.504;3.894;2023-02-23T09:36:34;101674.97;;;12.22;66.57
66398;BME280;54877;51.504;3.894;2023-02-23T09:39:00;101674.72;;;12.28;66.50
66398;BME280;54877;51.504;3.894;2023-02-23T09:47:15;101692.34;;;12.29;66.36
66398;BME280;54877;51.504;3.894;2023-02-23T09:49:54;101697.66;;;12.29;65.45
66398;BME280;54877;51.504;3.894;2023-02-23T09:52:24;101699.41;;;12.30;65.58
66398;BME280;54877;51.504;3.894;2023-02-23T09:54:59;101697.88;;;12.45;65.60
66398;BME280;54877;51.504;3.894;2023-02-23T09:57:31;101688.97;;;12.46;65.71
66398;BME280;54877;51.504;3.894;2023-02-23T10:00:01;101696.47;;;12.56;65.40
66398;BME280;54877;51.504;3.894;2023-02-23T10:02:36;101693.38;;;12.65;65.45
66398;BME280;54877;51.504;3.894;2023-02-23T10:05:08;101694.78;;;12.74;65.16
66398;BME280;54877;51.504;3.894;2023-02-23T10:15:48;101697.81;;;12.85;64.57
66398;BME280;54877;51.504;3.894;2023-02-23T10:23:49;101691.06;;;12.96;63.97
66398;BME280;54877;51.504;3.894;2023-02-23T10:26:20;101684.34;;;12.89;64.66
66398;BME280;54877;51.504;3.894;2023-02-23T10:28:49;101690.06;;;12.80;64.33
66398;BME280;54877;51.504;3.894;2023-02-23T10:33:56;101709.16;;;12.70;64.45
66398;BME280;54877;51.504;3.894;2023-02-23T10:36:29;101715.16;;;12.73;64.36
66398;BME280;54877;51.504;3.894;2023-02-23T10:38:57;101722.63;;;12.65;64.53
66398;BME280;54877;51.504;3.894;2023-02-23T10:41:22;101722.34;;;12.71;64.00
66398;BME280;54877;51.504;3.894;2023-02-23T10:43:47;101732.84;;;12.74;63.81
66398;BME280;54877;51.504;3.894;2023-02-23T10:46:16;101732.56;;;12.80;63.63
66398;BME280;54877;51.504;3.894;2023-02-23T10:48:46;101735.38;;;12.57;64.13
66398;BME280;54877;51.504;3.894;2023-02-23T10:51:21;101745.25;;;12.74;63.82
66398;BME280;54877;51.504;3.894;2023-02-23T10:53:50;101736.16;;;12.79;63.09
66398;BME280;54877;51.504;3.894;2023-02-23T10:56:17;101748.00;;;12.72;62.76
66398;BME280;54877;51.504;3.894;2023-02-23T10:58:48;101749.19;;;12.65;62.46
66398;BME280;54877;51.504;3.894;2023-02-23T11:01:21;101752.66;;;12.67;62.77
66398;BME280;54877;51.504;3.894;2023-02-23T11:04:22;101730.53;;;12.67;62.74
66398;BME280;54877;51.504;3.894;2023-02-23T11:07:07;101732.19;;;12.69;62.96
66398;BME280;54877;51.504;3.894;2023-02-23T11:09:38;101737.91;;;12.80;62.79
66398;BME280;54877;51.504;3.894;2023-02-23T11:14:54;101738.16;;;12.74;62.32
66398;BME280;54877;51.504;3.894;2023-02-23T11:17:23;101743.56;;;12.73;62.51
66398;BME280;54877;51.504;3.894;2023-02-23T11:19:48;101748.78;;;12.74;62.75
66398;BME280;54877;51.504;3.894;2023-02-23T11:22:18;101750.78;;;12.69;62.51
66398;BME280;54877;51.504;3.894;2023-02-23T11:24:47;101754.38;;;12.68;62.07
66398;BME280;54877;51.504;3.894;2023-02-23T11:27:20;101758.91;;;12.66;62.27
66398;BME280;54877;51.504;3.894;2023-02-23T11:29:48;101750.00;;;12.67;62.37
66398;BME280;54877;51.504;3.894;2023-02-23T11:32:18;101753.56;;;12.66;62.41
66398;BME280;54877;51.504;3.894;2023-02-23T11:34:45;101736.72;;;12.67;61.54
66398;BME280;54877;51.504;3.894;2023-02-23T11:39:53;101739.94;;;12.74;62.03
66398;BME280;54877;51.504;3.894;2023-02-23T11:42:21;101735.78;;;12.68;62.05
66398;BME280;54877;51.504;3.894;2023-02-23T11:45:02;101726.63;;;12.75;62.15
66398;BME280;54877;51.504;3.894;2023-02-23T11:47:39;101739.03;;;12.75;62.01
66398;BME280;54877;51.504;3.894;2023-02-23T11:50:06;101734.16;;;12.84;62.09
66398;BME280;54877;51.504;3.894;2023-02-23T11:52:41;101735.63;;;12.91;61.80
66398;BME280;54877;51.504;3.894;2023-02-23T11:55:11;101731.59;;;13.02;61.65
66398;BME280;54877;51.504;3.894;2023-02-23T11:57:41;101736.19;;;12.98;61.69
66398;BME280;54877;51.504;3.894;2023-02-23T12:00:09;101730.44;;;13.09;61.51
66398;BME280;54877;51.504;3.894;2023-02-23T12:02:51;101732.97;;;13.12;61.45
66398;BME280;54877;51.504;3.894;2023-02-23T12:05:29;101727.00;;;13.25;61.26
66398;BME280;54877;51.504;3.894;2023-02-23T12:08:06;101733.09;;;13.27;60.78
66398;BME280;54877;51.504;3.894;2023-02-23T12:20:51;101712.59;;;13.48;61.13
66398;BME280;54877;51.504;3.894;2023-02-23T12:23:21;101711.09;;;13.42;60.59
66398;BME280;54877;51.504;3.894;2023-02-23T12:25:57;101700.69;;;13.38;61.04
66398;BME280;54877;51.504;3.894;2023-02-23T12:31:16;101708.13;;;13.48;60.64
66398;BME280;54877;51.504;3.894;2023-02-23T12:33:58;101711.56;;;13.50;60.92
66398;BME280;54877;51.504;3.894;2023-02-23T12:41:57;101712.69;;;13.82;60.26
66398;BME280;54877;51.504;3.894;2023-02-23T12:52:57;101715.78;;;13.73;58.97
66398;BME280;54877;51.504;3.894;2023-02-23T12:58:32;101717.09;;;13.83;59.56
66398;BME280;54877;51.504;3.894;2023-02-23T13:01:07;101713.06;;;13.75;58.82
66398;BME280;54877;51.504;3.894;2023-02-23T13:14:44;101716.69;;;13.55;59.61
66398;BME280;54877;51.504;3.894;2023-02-23T13:17:26;101720.66;;;13.46;60.11
66398;BME280;54877;51.504;3.894;2023-02-23T13:25:37;101729.34;;;13.31;61.11
66398;BME280;54877;51.504;3.894;2023-02-23T13:28:13;101716.34;;;13.44;60.43
66398;BME280;54877;51.504;3.894;2023-02-23T13:30:44;101716.28;;;13.27;61.10
66398;BME280;54877;51.504;3.894;2023-02-23T13:33:17;101720.53;;;13.31;60.76
66398;BME280;54877;51.504;3.894;2023-02-23T13:35:50;101712.38;;;13.34;61.08
66398;BME280;54877;51.504;3.894;2023-02-23T13:38:18;101712.84;;;13.25;60.81
66398;BME280;54877;51.504;3.894;2023-02-23T13:41:05;101714.03;;;13.18;61.00
66398;BME280;54877;51.504;3.894;2023-02-23T13:51:46;101716.78;;;13.35;59.93
66398;BME280;54877;51.504;3.894;2023-02-23T13:56:43;101709.56;;;13.37;59.97
66398;BME280;54877;51.504;3.894;2023-02-23T13:59:16;101711.75;;;13.29;60.34
66398;BME280;54877;51.504;3.894;2023-02-23T14:01:45;101713.97;;;13.38;60.40
66398;BME280;54877;51.504;3.894;2023-02-23T14:06:54;101708.78;;;13.35;59.90
66398;BME280;54877;51.504;3.894;2023-02-23T14:09:30;101707.06;;;13.34;60.30
66398;BME280;54877;51.504;3.894;2023-02-23T14:12:15;101713.13;;;13.19;60.74
66398;BME280;54877;51.504;3.894;2023-02-23T14:14:56;101708.53;;;13.22;60.47
66398;BME280;54877;51.504;3.894;2023-02-23T14:17:54;101719.81;;;13.09;60.37
66398;BME280;54877;51.504;3.894;2023-02-23T14:20:35;101717.28;;;13.24;60.42
66398;BME280;54877;51.504;3.894;2023-02-23T14:23:13;101711.19;;;13.22;60.73
66398;BME280;54877;51.504;3.894;2023-02-23T14:28:33;101714.84;;;13.20;60.99
66398;BME280;54877;51.504;3.894;2023-02-23T14:33:37;101714.69;;;13.41;60.67
66398;BME280;54877;51.504;3.894;2023-02-23T14:41:24;101713.69;;;13.44;60.50
66398;BME280;54877;51.504;3.894;2023-02-23T14:44:10;101713.41;;;13.50;60.28
66398;BME280;54877;51.504;3.894;2023-02-23T14:46:45;101719.16;;;13.41;60.63
66398;BME280;54877;51.504;3.894;2023-02-23T14:49:20;101721.94;;;13.38;60.55
66398;BME280;54877;51.504;3.894;2023-02-23T14:51:56;101719.88;;;13.44;60.47
66398;BME280;54877;51.504;3.894;2023-02-23T14:56:56;101728.41;;;13.14;61.40
66398;BME280;54877;51.504;3.894;2023-02-23T14:59:25;101733.47;;;13.20;61.27
66398;BME280;54877;51.504;3.894;2023-02-23T15:01:54;101726.41;;;12.98;61.65
66398;BME280;54877;51.504;3.894;2023-02-23T15:04:24;101735.41;;;12.96;61.55
66398;BME280;54877;51.504;3.894;2023-02-23T15:07:00;101737.91;;;12.99;61.55
66398;BME280;54877;51.504;3.894;2023-02-23T15:12:01;101735.22;;;13.01;61.33
66398;BME280;54877;51.504;3.894;2023-02-23T15:14:35;101740.16;;;12.89;61.67
66398;BME280;54877;51.504;3.894;2023-02-23T15:17:02;101740.53;;;13.01;61.80
66398;BME280;54877;51.504;3.894;2023-02-23T15:19:29;101736.91;;;13.02;61.81
66398;BME280;54877;51.504;3.894;2023-02-23T15:21:59;101736.19;;;12.98;62.40
66398;BME280;54877;51.504;3.894;2023-02-23T15:24:39;101741.59;;;12.96;62.59
66398;BME280;54877;51.504;3.894;2023-02-23T15:27:14;101741.06;;;12.88;62.48